.
WxDataArchive / Data Records for 2009-11-17
2009-11-16 November 2009 2009-11-18

Data Records for Tuesday, 17 November 2009

Time	Temp	Chill	HIndex	Humid	Dewpt	 Wind 	HiWind	WindDir	Rain 	Barom 
-----	----	-----	------	-----	-----	------	------	-------	-----	----- 
00:00	42.3	42.3	42.3	78	35.9	3	10	112	0.00	30.162 
00:05	42.3	40.0	42.3	77	35.6	4	13	112	0.00	30.162 
00:10	42.3	42.3	42.3	77	35.6	3	10	112	0.00	30.162 
00:15	42.3	42.3	42.3	78	35.9	3	7	112	0.00	30.162 
00:20	42.3	42.3	42.3	78	35.9	3	7	112	0.00	30.162 
00:25	42.3	42.3	42.3	77	35.6	3	7	90	0.00	30.162 
00:30	42.3	39.2	42.3	77	35.6	5	11	112	0.00	30.163 
00:35	42.3	39.2	42.3	77	35.6	5	11	90	0.00	30.163 
00:40	42.2	39.1	42.2	78	35.8	5	11	112	0.00	30.163 
00:45	42.2	39.9	42.2	78	35.8	4	10	90	0.00	30.162 
00:50	42.1	39.7	42.1	79	36.1	4	10	90	0.00	30.162 
00:55	41.9	41.9	41.9	79	35.9	3	9	90	0.00	30.162 
01:00	41.8	41.8	41.8	79	35.8	3	11	90	0.00	30.154 
01:05	41.8	41.8	41.8	79	35.8	2	4	68	0.00	30.154 
01:10	41.6	41.6	41.6	79	35.6	2	8	112	0.00	30.154 
01:15	41.5	41.5	41.5	79	35.5	3	7	112	0.00	30.148 
01:20	41.5	41.5	41.5	79	35.5	3	7	112	0.00	30.148 
01:25	41.5	41.5	41.5	79	35.5	3	9	90	0.00	30.148 
01:30	41.5	41.5	41.5	79	35.5	2	7	112	0.00	30.152 
01:35	41.3	41.3	41.3	80	35.6	1	5	112	0.00	30.152 
01:40	41.5	39.1	41.5	79	35.5	4	12	112	0.00	30.152 
01:45	41.5	39.1	41.5	79	35.5	4	7	90	0.00	30.152 
01:50	41.6	39.2	41.6	79	35.6	4	7	90	0.00	30.152 
01:55	41.5	41.5	41.5	79	35.5	3	11	90	0.00	30.152 
02:00	41.5	41.5	41.5	79	35.5	3	10	90	0.00	30.147 
02:05	41.3	41.3	41.3	79	35.3	3	10	112	0.00	30.147 
02:10	41.3	41.3	41.3	79	35.3	2	6	112	0.00	30.147 
02:15	41.2	41.2	41.2	80	35.5	2	7	112	0.00	30.143 
02:20	41.1	41.1	41.1	80	35.4	2	7	90	0.00	30.143 
02:25	41.1	41.1	41.1	80	35.4	3	11	90	0.00	30.143 
02:30	41.1	41.1	41.1	80	35.4	3	12	112	0.00	30.143 
02:35	41.1	41.1	41.1	80	35.4	3	9	112	0.00	30.143 
02:40	40.9	40.9	40.9	80	35.2	3	5	112	0.00	30.143 
02:45	40.8	40.8	40.8	80	35.1	3	10	112	0.00	30.138 
02:50	40.8	40.8	40.8	80	35.1	2	7	90	0.00	30.138 
02:55	40.8	38.2	40.8	79	34.8	4	10	112	0.00	30.138 
03:00	40.8	40.8	40.8	80	35.1	2	6	112	0.00	30.137 
03:05	40.6	40.6	40.6	80	34.9	2	6	112	0.00	30.137 
03:10	40.8	40.8	40.8	80	35.1	2	9	112	0.00	30.137 
03:15	40.8	40.8	40.8	80	35.1	3	9	112	0.00	30.133 
03:20	40.9	40.9	40.9	79	34.9	3	11	112	0.00	30.133 
03:25	40.8	40.8	40.8	80	35.1	2	6	90	0.00	30.133 
03:30	40.9	40.9	40.9	80	35.2	3	11	112	0.00	30.130 
03:35	40.9	40.9	40.9	79	34.9	3	7	90	0.00	30.130 
03:40	41.1	41.1	41.1	79	35.1	3	13	90	0.00	30.130 
03:45	41.1	41.1	41.1	79	35.1	3	11	112	0.00	30.124 
03:50	40.9	40.9	40.9	79	34.9	3	10	112	0.00	30.124 
03:55	40.9	40.9	40.9	79	34.9	3	7	90	0.00	30.124 
04:00	40.8	40.8	40.8	79	34.8	3	15	68	0.00	30.119 
04:05	40.8	40.8	40.8	79	34.8	3	10	112	0.00	30.119 
04:10	40.8	40.8	40.8	79	34.8	3	9	90	0.00	30.119 
04:15	40.6	40.6	40.6	79	34.6	2	7	90	0.00	30.116 
04:20	40.5	40.5	40.5	79	34.5	2	9	90	0.00	30.116 
04:25	40.5	40.5	40.5	79	34.5	3	9	90	0.00	30.116 
04:30	40.3	40.3	40.3	79	34.3	2	10	112	0.00	30.110 
04:35	40.3	40.3	40.3	79	34.3	3	13	90	0.00	30.110 
04:40	40.2	40.2	40.2	79	34.2	3	9	90	0.00	30.110 
04:45	40.2	40.2	40.2	78	33.9	3	11	112	0.00	30.111 
04:50	40.3	40.3	40.3	78	34.0	3	10	112	0.00	30.111 
04:55	40.3	40.3	40.3	78	34.0	3	11	112	0.00	30.111 
05:00	40.3	40.3	40.3	78	34.0	2	10	90	0.00	30.108 
05:05	40.2	40.2	40.2	79	34.2	3	10	112	0.00	30.108 
05:10	40.2	40.2	40.2	79	34.2	2	9	90	0.00	30.108 
05:15	40.2	40.2	40.2	79	34.2	2	6	112	0.00	30.113 
05:20	40.1	40.1	40.1	79	34.1	3	10	90	0.00	30.113 
05:25	40.1	40.1	40.1	79	34.1	3	11	112	0.00	30.113 
05:30	40.1	40.1	40.1	80	34.4	3	14	112	0.00	30.107 
05:35	40.1	40.1	40.1	80	34.4	3	9	112	0.00	30.107 
05:40	40.1	40.1	40.1	81	34.7	3	9	112	0.00	30.107 
05:45	40.1	40.1	40.1	81	34.7	3	12	112	0.00	30.098 
05:50	39.9	39.9	39.9	81	34.6	3	9	112	0.00	30.098 
05:55	39.9	37.2	39.9	82	34.9	4	11	112	0.00	30.098 
06:00	39.9	39.9	39.9	82	34.9	3	12	112	0.00	30.091 
06:05	39.9	39.9	39.9	83	35.2	3	10	112	0.00	30.091 
06:10	39.8	39.8	39.8	83	35.1	3	11	112	0.00	30.091 
06:15	39.9	37.2	39.9	84	35.5	4	10	112	0.00	30.090 
06:20	39.9	37.2	39.9	84	35.5	4	11	90	0.00	30.090 
06:25	39.9	39.9	39.9	84	35.5	3	9	112	0.00	30.090 
06:30	39.9	36.4	39.9	84	35.5	5	15	90	0.00	30.089 
06:35	39.9	39.9	39.9	84	35.5	3	9	90	0.00	30.089 
06:40	39.9	39.9	39.9	84	35.5	2	11	90	0.00	30.089 
06:45	39.9	36.4	39.9	84	35.5	5	11	112	0.00	30.106 
06:50	39.9	37.2	39.9	83	35.2	4	13	112	0.00	30.106 
06:55	39.9	39.9	39.9	83	35.2	3	7	112	0.00	30.106 
07:00	39.9	39.9	39.9	83	35.2	3	7	112	0.00	30.102 
07:05	39.8	39.8	39.8	83	35.1	3	9	112	0.00	30.102 
07:10	39.6	39.6	39.6	83	34.9	2	8	90	0.00	30.102 
07:15	39.6	39.6	39.6	83	34.9	3	10	112	0.00	30.099 
07:20	39.5	39.5	39.5	83	34.8	2	8	45	0.00	30.099 
07:25	39.5	39.5	39.5	83	34.8	3	7	112	0.00	30.099 
07:30	39.3	36.5	39.3	82	34.3	4	11	112	0.00	30.101 
07:35	39.2	39.2	39.2	81	33.9	3	11	112	0.00	30.101 
07:40	39.2	35.5	39.2	80	33.6	5	11	112	0.00	30.101 
07:45	39.2	36.4	39.2	80	33.6	4	12	90	0.00	30.105 
07:50	39.2	36.4	39.2	80	33.6	4	10	112	0.00	30.105 
07:55	39.2	39.2	39.2	80	33.6	3	10	112	0.00	30.105 
08:00	39.2	39.2	39.2	81	33.9	3	11	68	0.00	30.099 
08:05	39.3	39.3	39.3	81	34.0	3	7	90	0.00	30.099 
08:10	39.3	39.3	39.3	81	34.0	3	10	90	0.00	30.099 
08:15	39.5	35.9	39.5	82	34.5	5	14	90	0.00	30.112 
08:20	39.6	39.6	39.6	82	34.6	2	6	112	0.00	30.112 
08:25	39.6	39.6	39.6	83	34.9	3	9	112	0.00	30.112 
08:30	39.8	39.8	39.8	83	35.1	3	11	112	0.00	30.111 
08:35	39.9	39.9	39.9	84	35.5	3	12	135	0.00	30.111 
08:40	40.1	36.6	40.1	84	35.7	5	11	112	0.00	30.111 
08:45	40.1	37.4	40.1	84	35.7	4	15	112	0.00	30.116 
08:50	40.3	37.7	40.3	85	36.2	4	13	112	0.00	30.116 
08:55	40.5	40.5	40.5	85	36.4	3	10	90	0.00	30.116 
09:00	40.6	40.6	40.6	85	36.4	3	7	112	0.00	30.122 
09:05	40.9	38.4	40.9	86	37.0	4	12	112	0.00	30.122 
09:10	41.1	37.8	41.1	86	37.2	5	12	112	0.00	30.122 
09:15	41.3	38.8	41.3	86	37.4	4	7	90	0.00	30.132 
09:20	41.5	38.2	41.5	86	37.6	5	14	112	0.00	30.132 
09:25	41.8	39.4	41.8	86	37.9	4	11	90	0.00	30.132 
09:30	41.8	39.4	41.8	86	37.9	4	13	112	0.00	30.121 
09:35	41.9	39.5	41.9	86	38.0	4	10	112	0.00	30.121 
09:40	42.1	38.9	42.1	86	38.2	5	13	90	0.00	30.121 
09:45	42.2	42.2	42.2	86	38.3	3	7	112	0.00	30.127 
09:50	42.3	42.3	42.3	86	38.4	2	7	90	0.00	30.127 
09:55	42.5	40.2	42.5	86	38.6	4	10	90	0.00	30.127 
10:00	42.8	42.8	42.8	86	38.9	3	11	112	0.00	30.118 
10:05	42.9	42.9	42.9	86	39.0	3	10	90	0.00	30.118 
10:10	43.1	43.1	43.1	86	39.2	3	11	112	0.00	30.118 
10:15	43.3	40.3	43.3	86	39.4	5	12	90	0.00	30.110 
10:20	43.6	41.5	43.6	85	39.4	4	12	112	0.00	30.110 
10:25	43.9	43.9	43.9	85	39.7	3	8	90	0.00	30.110 
10:30	44.2	42.2	44.2	85	40.0	4	11	90	0.00	30.107 
10:35	44.5	42.5	44.5	84	40.0	4	10	90	0.00	30.107 
10:40	44.8	42.9	44.8	83	40.0	4	12	112	0.00	30.107 
10:45	45.2	42.0	45.2	83	40.3	6	14	90	0.00	30.113 
10:50	45.5	42.9	45.5	82	40.3	5	10	112	0.00	30.113 
10:55	46.0	44.2	46.0	81	40.5	4	8	90	0.00	30.113 
11:00	46.2	43.8	46.2	80	40.4	5	16	90	0.00	30.113 
11:05	46.5	44.8	46.5	80	40.7	4	10	90	0.00	30.113 
11:10	46.5	44.8	46.5	80	40.7	4	14	112	0.00	30.113 
11:15	46.5	44.1	46.5	79	40.3	5	11	112	0.00	30.095 
11:20	46.7	45.1	46.7	79	40.5	4	13	112	0.00	30.095 
11:25	46.8	46.8	46.8	77	40.0	3	12	90	0.00	30.095 
11:30	47.1	44.8	47.1	77	40.3	5	16	90	0.00	30.094 
11:35	47.4	45.2	47.4	75	39.9	5	14	90	0.00	30.094 
11:40	47.7	44.9	47.7	73	39.5	6	13	112	0.00	30.094 
11:45	48.0	45.3	48.0	72	39.4	6	14	90	0.00	30.094 
11:50	48.3	46.9	48.3	73	40.1	4	12	112	0.00	30.094 
11:55	48.3	45.6	48.3	72	39.7	6	16	112	0.00	30.094 
12:00	48.3	46.2	48.3	71	39.3	5	14	90	0.00	30.091 
12:05	48.2	45.0	48.2	72	39.6	7	16	90	0.00	30.091 
12:10	48.0	45.9	48.0	73	39.8	5	15	112	0.00	30.091 
12:15	48.2	48.2	48.2	73	40.0	3	8	90	0.00	30.091 
12:20	48.2	48.2	48.2	73	40.0	3	7	112	0.00	30.091 
12:25	48.0	48.0	48.0	75	40.5	3	7	112	0.00	30.091 
12:30	47.7	46.2	47.7	76	40.5	4	8	112	0.00	30.086 
12:35	47.7	47.7	47.7	77	40.8	3	9	112	0.00	30.086 
12:40	47.6	47.6	47.6	77	40.8	2	5	112	0.00	30.086 
12:45	47.6	47.6	47.6	78	41.1	2	7	112	0.00	30.079 
12:50	47.4	47.4	47.4	78	40.9	3	7	90	0.00	30.079 
12:55	47.4	47.4	47.4	78	40.9	1	4	90	0.00	30.079 
13:00	47.3	47.3	47.3	78	40.8	3	11	112	0.00	30.081 
13:05	47.4	47.4	47.4	78	40.9	2	6	112	0.00	30.081 
13:10	47.4	47.4	47.4	79	41.2	3	9	90	0.00	30.081 
13:15	47.4	47.4	47.4	80	41.5	3	9	90	0.00	30.091 
13:20	47.4	47.4	47.4	81	41.9	2	9	90	0.00	30.091 
13:25	47.3	47.3	47.3	82	42.1	1	4	112	0.00	30.091 
13:30	47.3	47.3	47.3	83	42.4	1	5	112	0.01	30.079 
13:35	47.4	47.4	47.4	83	42.5	1	4	68	0.00	30.079 
13:40	47.7	47.7	47.7	83	42.8	2	9	112	0.00	30.079 
13:45	48.0	48.0	48.0	81	42.5	3	9	112	0.00	30.063 
13:50	48.5	48.5	48.5	79	42.3	3	11	90	0.00	30.063 
13:55	49.2	47.3	49.2	78	42.6	5	12	112	0.00	30.063 
14:00	49.6	47.2	49.6	75	42.0	6	14	112	0.00	30.062 
14:05	49.9	47.1	49.9	73	41.6	7	16	112	0.00	30.062 
14:10	49.8	47.4	49.8	73	41.5	6	15	112	0.00	30.062 
14:15	49.5	46.6	49.5	73	41.2	7	16	112	0.00	30.060 
14:20	49.4	48.2	49.4	74	41.5	4	11	90	0.00	30.060 
14:25	49.4	47.5	49.4	73	41.1	5	16	90	0.00	30.060 
14:30	49.5	47.6	49.5	72	40.9	5	13	112	0.00	30.043 
14:35	49.8	48.0	49.8	72	41.1	5	13	112	0.00	30.043 
14:40	49.8	46.9	49.8	70	40.4	7	16	112	0.00	30.043 
14:45	49.6	47.2	49.6	71	40.6	6	19	112	0.00	30.050 
14:50	49.6	47.2	49.6	71	40.6	6	13	112	0.00	30.050 
14:55	49.4	48.2	49.4	72	40.8	4	10	90	0.00	30.050 
15:00	49.2	47.9	49.2	73	40.9	4	11	90	0.00	30.048 
15:05	49.4	47.5	49.4	73	41.1	5	12	112	0.00	30.048 
15:10	49.5	47.6	49.5	73	41.2	5	11	112	0.00	30.048 
15:15	49.6	49.6	49.6	73	41.3	3	7	112	0.00	30.046 
15:20	49.8	48.0	49.8	73	41.5	5	13	112	0.00	30.046 
15:25	49.8	48.6	49.8	74	41.9	4	11	112	0.00	30.046 
15:30	49.6	48.4	49.6	73	41.3	4	13	112	0.00	30.050 
15:35	49.6	49.6	49.6	73	41.3	2	5	90	0.00	30.050 
15:40	49.8	49.8	49.8	74	41.9	3	10	112	0.00	30.050 
15:45	49.8	48.6	49.8	74	41.9	4	11	112	0.00	30.052 
15:50	49.6	47.2	49.6	73	41.3	6	11	90	0.00	30.052 
15:55	49.8	48.6	49.8	73	41.5	4	10	112	0.00	30.052 
16:00	49.6	48.4	49.6	72	40.9	4	12	112	0.00	30.058 
16:05	49.5	48.3	49.5	72	40.9	4	12	112	0.00	30.058 
16:10	49.5	47.1	49.5	72	40.9	6	13	112	0.00	30.058 
16:15	49.4	47.5	49.4	72	40.8	5	12	112	0.00	30.058 
16:20	49.4	47.5	49.4	72	40.8	5	12	90	0.00	30.058 
16:25	49.2	47.9	49.2	72	40.6	4	11	112	0.00	30.058 
16:30	49.2	47.3	49.2	73	40.9	5	12	90	0.00	30.060 
16:35	49.2	47.9	49.2	73	40.9	4	9	112	0.00	30.060 
16:40	49.1	47.2	49.1	73	40.8	5	10	90	0.00	30.060 
16:45	48.9	47.6	48.9	73	40.6	4	15	90	0.00	30.057 
16:50	48.9	47.6	48.9	73	40.6	4	10	112	0.00	30.057 
16:55	48.8	48.8	48.8	73	40.5	3	12	112	0.00	30.057 
17:00	48.8	47.5	48.8	73	40.5	4	10	112	0.00	30.057 
17:05	48.8	47.5	48.8	73	40.5	4	10	112	0.00	30.057 
17:10	48.6	48.6	48.6	74	40.7	3	9	112	0.00	30.057 
17:15	48.5	48.5	48.5	74	40.6	2	9	112	0.00	30.065 
17:20	48.3	48.3	48.3	74	40.4	3	9	112	0.00	30.065 
17:25	48.3	46.9	48.3	73	40.1	4	9	90	0.00	30.065 
17:30	48.2	48.2	48.2	73	40.0	3	7	90	0.00	30.079 
17:35	48.2	48.2	48.2	73	40.0	3	7	90	0.00	30.079 
17:40	48.0	48.0	48.0	73	39.8	3	6	90	0.00	30.079 
17:45	48.0	48.0	48.0	73	39.8	3	10	112	0.00	30.077 
17:50	47.9	47.9	47.9	73	39.7	2	7	90	0.00	30.077 
17:55	47.9	46.4	47.9	71	39.0	4	12	90	0.00	30.077 
18:00	47.7	47.7	47.7	72	39.1	3	11	112	0.00	30.076 
18:05	47.7	47.7	47.7	72	39.1	3	11	90	0.00	30.076 
18:10	47.6	47.6	47.6	72	39.0	2	6	90	0.00	30.076 
18:15	47.4	47.4	47.4	72	38.8	2	10	45	0.00	30.080 
18:20	47.3	45.8	47.3	72	38.7	4	11	112	0.00	30.080 
18:25	47.0	47.0	47.0	73	38.8	1	5	90	0.00	30.080 
18:30	46.8	46.8	46.8	74	39.0	3	8	112	0.00	30.083 
18:35	46.7	46.7	46.7	75	39.2	3	9	112	0.00	30.083 
18:40	46.7	46.7	46.7	75	39.2	3	10	112	0.00	30.083 
18:45	46.7	45.1	46.7	75	39.2	4	12	90	0.00	30.092 
18:50	46.7	45.1	46.7	75	39.2	4	10	90	0.00	30.092 
18:55	46.7	45.1	46.7	75	39.2	4	11	112	0.00	30.092 
19:00	46.7	46.7	46.7	75	39.2	3	10	90	0.00	30.093 
19:05	46.7	45.1	46.7	75	39.2	4	11	112	0.00	30.093 
19:10	46.7	44.3	46.7	75	39.2	5	11	112	0.00	30.093 
19:15	46.7	46.7	46.7	76	39.5	3	7	90	0.00	30.090 
19:20	46.5	46.5	46.5	76	39.3	3	9	112	0.00	30.090 
19:25	46.5	46.5	46.5	76	39.3	3	8	112	0.00	30.090 
19:30	46.5	44.8	46.5	76	39.3	4	12	112	0.00	30.083 
19:35	46.4	46.4	46.4	77	39.6	3	7	112	0.00	30.083 
19:40	46.4	44.7	46.4	77	39.6	4	11	112	0.00	30.083 
19:45	46.4	44.7	46.4	77	39.6	4	12	90	0.00	30.095 
19:50	46.4	46.4	46.4	78	39.9	3	9	90	0.00	30.095 
19:55	46.2	46.2	46.2	78	39.7	2	8	90	0.00	30.095 
20:00	46.2	44.5	46.2	78	39.7	4	10	112	0.00	30.095 
20:05	46.2	46.2	46.2	79	40.1	3	9	112	0.00	30.095 
20:10	46.2	46.2	46.2	79	40.1	2	6	112	0.00	30.095 
20:15	46.2	46.2	46.2	79	40.1	2	9	90	0.00	30.091 
20:20	46.2	44.5	46.2	80	40.4	4	8	112	0.00	30.091 
20:25	46.2	46.2	46.2	80	40.4	2	9	112	0.00	30.091 
20:30	46.2	46.2	46.2	81	40.7	2	6	112	0.00	30.095 
20:35	46.1	46.1	46.1	83	41.2	2	5	112	0.00	30.095 
20:40	46.0	46.0	46.0	84	41.4	1	3	112	0.00	30.095 
20:45	45.8	45.8	45.8	84	41.2	3	5	112	0.00	30.094 
20:50	45.7	45.7	45.7	85	41.5	3	7	90	0.01	30.094 
20:55	45.5	45.5	45.5	86	41.6	3	6	112	0.00	30.094 
21:00	45.4	45.4	45.4	87	41.8	1	4	112	0.00	30.084 
21:05	45.4	45.4	45.4	87	41.8	1	5	112	0.00	30.084 
21:10	45.2	45.2	45.2	87	41.6	1	5	90	0.00	30.084 
21:15	45.2	45.2	45.2	87	41.6	2	6	112	0.00	30.075 
21:20	45.2	45.2	45.2	87	41.6	2	5	112	0.00	30.075 
21:25	45.2	45.2	45.2	87	41.6	2	6	112	0.00	30.075 
21:30	45.4	45.4	45.4	87	41.8	1	6	112	0.00	30.065 
21:35	45.4	45.4	45.4	87	41.8	2	6	90	0.00	30.065 
21:40	45.4	45.4	45.4	87	41.8	1	5	90	0.00	30.065 
21:45	45.4	45.4	45.4	87	41.8	1	6	90	0.00	30.063 
21:50	45.4	45.4	45.4	87	41.8	2	5	90	0.00	30.063 
21:55	45.4	45.4	45.4	86	41.5	3	8	112	0.00	30.063 
22:00	45.5	45.5	45.5	86	41.6	2	7	112	0.00	30.064 
22:05	45.4	45.4	45.4	87	41.8	2	6	90	0.00	30.064 
22:10	45.4	45.4	45.4	87	41.8	2	8	90	0.00	30.064 
22:15	45.4	45.4	45.4	87	41.8	1	6	90	0.00	30.064 
22:20	45.5	45.5	45.5	87	41.9	2	8	112	0.00	30.064 
22:25	45.5	45.5	45.5	87	41.9	3	7	90	0.00	30.064 
22:30	45.5	43.7	45.5	86	41.6	4	10	90	0.00	30.060 
22:35	45.5	45.5	45.5	86	41.6	2	10	112	0.00	30.060 
22:40	45.5	45.5	45.5	86	41.6	3	11	90	0.00	30.060 
22:45	45.7	45.7	45.7	86	41.8	3	12	112	0.00	30.054 
22:50	45.7	45.7	45.7	86	41.8	2	7	90	0.00	30.054 
22:55	45.7	45.7	45.7	86	41.8	2	6	90	0.00	30.054 
23:00	45.8	45.8	45.8	85	41.6	2	7	90	0.00	30.054 
23:05	45.8	45.8	45.8	85	41.6	2	9	112	0.00	30.054 
23:10	45.8	45.8	45.8	85	41.6	2	7	90	0.00	30.054 
23:15	45.8	45.8	45.8	85	41.6	3	8	112	0.00	30.055 
23:20	45.7	45.7	45.7	85	41.5	3	8	112	0.00	30.055 
23:25	45.7	45.7	45.7	85	41.5	2	6	112	0.00	30.055 
23:30	45.5	45.5	45.5	85	41.3	2	6	112	0.00	30.055 
23:35	45.5	45.5	45.5	85	41.3	1	4	112	0.00	30.055 
23:40	45.4	45.4	45.4	85	41.2	3	7	90	0.00	30.055 
23:45	45.5	45.5	45.5	85	41.3	2	7	90	0.00	30.058 
23:50	45.5	45.5	45.5	85	41.3	2	5	112	0.00	30.058 
23:55	45.5	45.5	45.5	85	41.3	2	7	90	0.00	30.058 

CoCoRaHS
IN-AL-39
A2 Web Hosting
Creative Commons License
GoDaddy
search engine by freefind advanced

loaded 2018-11-17 14:09:55 • last modified 2010-11-18 10:43:29
Privacy PolicyDisclaimer
• wx.awcolley.com is powered by PmWiki v.2002016 •
• all content (unless otherwise noted) © 2018 A W Colley